Time;durP1;ratioP1;P1;durP2;ratioP2;P2;SDS_P1;SDS_P2;PMS_P1;PMS_P2;Temp;Humidity;BMP_temperature;BMP_pressure;BME280_temperature;BME280_humidity;BME280_pressure;Samples;Min_cycle;Max_cycle;Signal;HPM_P1;HPM_P2
2023/04/07 00:00:22;;;;;;;30.83;22.25;;;7.50;99.90;;;;;;5113652;28;20097;-64
2023/04/07 00:02:50;;;;;;;29.70;22.40;;;7.60;99.90;;;;;;5095162;28;20044;-64
2023/04/07 00:05:16;;;;;;;28.80;20.45;;;7.60;99.90;;;;;;5112996;28;20063;-64
2023/04/07 00:07:43;;;;;;;27.73;20.48;;;7.70;99.90;;;;;;5113403;28;20176;-66
2023/04/07 00:10:11;;;;;;;28.85;20.98;;;7.50;99.90;;;;;;5095358;28;20043;-65
2023/04/07 00:12:37;;;;;;;27.92;21.38;;;7.60;99.90;;;;;;5113474;28;20058;-65
2023/04/07 00:15:05;;;;;;;31.23;22.27;;;7.60;99.90;;;;;;5095107;28;20048;-64
2023/04/07 00:17:31;;;;;;;30.58;23.75;;;7.60;99.90;;;;;;5095172;28;20039;-64
2023/04/07 00:19:57;;;;;;;31.17;22.80;;;7.70;99.90;;;;;;5095296;28;20451;-64
2023/04/07 00:22:23;;;;;;;28.67;21.27;;;7.60;99.90;;;;;;5113206;28;20043;-65
2023/04/07 00:24:50;;;;;;;29.17;21.02;;;7.70;99.90;;;;;;5112646;28;20448;-64
2023/04/07 00:27:22;;;;;;;29.48;21.63;;;7.60;99.90;;;;;;5112440;28;20047;-64
2023/04/07 00:29:48;;;;;;;31.10;21.85;;;7.60;99.90;;;;;;5113544;28;20444;-65
2023/04/07 00:32:14;;;;;;;29.67;22.65;;;7.70;99.90;;;;;;5095233;28;20078;-65
2023/04/07 00:34:41;;;;;;;30.70;22.13;;;7.70;99.90;;;;;;5113076;28;20077;-64
2023/04/07 00:37:09;;;;;;;31.70;23.30;;;7.70;99.90;;;;;;5112296;28;20414;-64
2023/04/07 00:39:35;;;;;;;31.85;21.92;;;7.70;99.90;;;;;;5112802;28;20090;-64
2023/04/07 00:42:05;;;;;;;30.67;22.35;;;7.70;99.90;;;;;;5112763;28;20048;-64
2023/04/07 00:44:32;;;;;;;30.40;22.02;;;7.60;99.90;;;;;;5112558;28;20058;-64
2023/04/07 00:47:02;;;;;;;31.10;22.58;;;7.70;99.90;;;;;;5112001;28;20136;-65
2023/04/07 00:49:33;;;;;;;31.40;21.55;;;7.70;99.90;;;;;;5094364;28;20385;-65
2023/04/07 00:52:00;;;;;;;33.60;23.38;;;7.70;99.90;;;;;;5094553;28;20433;-64
2023/04/07 00:54:26;;;;;;;36.03;22.67;;;7.60;99.90;;;;;;5112349;28;20077;-66
2023/04/07 00:56:52;;;;;;;32.92;23.13;;;7.70;99.90;;;;;;5094476;28;20055;-64
2023/04/07 00:59:20;;;;;;;31.10;22.10;;;7.80;99.90;;;;;;5094234;28;20413;-64
2023/04/07 01:02:16;;;;;;;32.95;22.02;;;7.70;99.90;;;;;;5112478;28;20047;-65
2023/04/07 01:04:46;;;;;;;;;;;7.70;99.90;;;;;;5112974;28;20146;-64
2023/04/07 01:07:25;;;;;;;31.08;22.30;;;7.80;99.90;;;;;;5112167;28;19920;-64
2023/04/07 01:10:09;;;;;;;32.10;21.73;;;7.80;99.90;;;;;;5094737;28;20378;-63
2023/04/07 01:13:00;;;;;;;33.97;23.05;;;7.80;99.90;;;;;;5112731;28;20199;-64
2023/04/07 01:15:28;;;;;;;33.00;23.50;;;7.70;99.90;;;;;;5111508;28;20508;-64
2023/04/07 01:18:23;;;;;;;33.65;23.50;;;7.90;99.90;;;;;;5111673;28;20135;-64
2023/04/07 01:21:01;;;;;;;34.58;23.05;;;7.80;99.90;;;;;;5098524;28;20047;-64
2023/04/07 01:23:50;;;;;;;32.67;23.05;;;7.90;99.90;;;;;;5093936;28;20091;-64
2023/04/07 01:26:46;;;;;;;30.60;21.27;;;7.90;99.90;;;;;;5111489;28;20055;-65
2023/04/07 01:29:39;;;;;;;33.47;21.10;;;7.80;99.90;;;;;;5089990;28;20080;-65
2023/04/07 01:32:10;;;;;;;30.85;22.40;;;7.90;99.90;;;;;;5091720;28;20138;-64
2023/04/07 01:34:37;;;;;;;32.83;22.13;;;7.80;99.90;;;;;;5073973;28;20079;-64
2023/04/07 01:37:05;;;;;;;32.63;22.17;;;7.80;99.90;;;;;;5091053;28;20066;-63
2023/04/07 01:39:33;;;;;;;32.33;22.35;;;7.90;99.90;;;;;;5090928;28;20055;-64
2023/04/07 01:42:03;;;;;;;31.75;21.27;;;8.10;99.90;;;;;;5090202;28;20468;-63
2023/04/07 01:44:31;;;;;;;30.38;20.38;;;8.10;99.90;;;;;;5090921;28;20324;-64
2023/04/07 01:46:59;;;;;;;30.55;20.50;;;8.10;99.90;;;;;;5090587;28;20059;-63
2023/04/07 01:49:27;;;;;;;30.75;21.55;;;8.00;99.90;;;;;;5090033;28;20051;-64
2023/04/07 01:51:54;;;;;;;30.10;19.83;;;8.10;99.90;;;;;;5091471;28;20044;-64
2023/04/07 01:54:24;;;;;;;29.73;18.60;;;8.00;99.90;;;;;;5091388;28;20044;-64
2023/04/07 01:56:57;;;;;;;29.55;17.48;;;8.20;99.90;;;;;;5090273;28;20067;-64
2023/04/07 01:59:23;;;;;;;24.75;16.90;;;8.20;99.90;;;;;;5089481;28;20456;-64
2023/04/07 02:01:50;;;;;;;24.98;13.77;;;8.20;99.90;;;;;;5089762;28;20054;-64
2023/04/07 02:04:50;;;;;;;23.27;14.00;;;8.30;99.90;;;;;;5091296;28;20084;-65
2023/04/07 02:07:21;;;;;;;22.10;12.65;;;8.20;99.90;;;;;;5090847;28;20481;-64
2023/04/07 02:09:50;;;;;;;23.67;10.25;;;8.30;99.90;;;;;;5091313;28;20068;-65
2023/04/07 02:12:16;;;;;;;21.05;10.27;;;8.40;99.90;;;;;;5073322;28;20076;-65
2023/04/07 02:14:43;;;;;;;20.85;10.38;;;8.40;99.90;;;;;;5090574;28;20048;-64
2023/04/07 02:17:16;;;;;;;16.08;7.75;;;8.40;99.90;;;;;;5090643;28;20475;-64
2023/04/07 02:19:44;;;;;;;15.63;8.52;;;8.40;99.90;;;;;;5070336;28;20067;-64
2023/04/07 02:22:16;;;;;;;13.02;6.88;;;8.40;99.90;;;;;;5070916;28;20503;-64
2023/04/07 02:24:46;;;;;;;19.05;7.40;;;8.30;99.90;;;;;;5070486;28;20121;-64
2023/04/07 02:27:12;;;;;;;17.27;7.72;;;8.30;99.90;;;;;;5052796;28;20413;-65
2023/04/07 02:29:39;;;;;;;16.40;7.22;;;8.40;99.90;;;;;;5090643;28;20059;-64
2023/04/07 02:32:05;;;;;;;12.27;6.85;;;8.40;99.90;;;;;;5073578;28;20044;-63
2023/04/07 02:34:38;;;;;;;13.93;6.90;;;8.40;99.90;;;;;;5090918;28;20044;-63
2023/04/07 02:37:11;;;;;;;14.65;8.23;;;8.40;99.90;;;;;;5091008;28;20067;-63
2023/04/07 02:39:37;;;;;;;15.70;7.53;;;8.30;99.90;;;;;;5090513;28;20091;-64
2023/04/07 02:42:04;;;;;;;13.93;7.93;;;8.30;99.90;;;;;;5091095;28;20048;-65
2023/04/07 02:44:30;;;;;;;15.60;6.97;;;8.40;99.90;;;;;;5090969;28;20078;-65
2023/04/07 02:46:56;;;;;;;14.32;7.28;;;8.50;99.90;;;;;;5090266;28;20128;-64
2023/04/07 02:49:22;;;;;;;13.30;6.90;;;8.30;99.90;;;;;;5090656;28;20048;-63
2023/04/07 02:51:50;;;;;;;13.00;7.38;;;8.40;99.90;;;;;;5090617;28;20098;-64
2023/04/07 02:54:17;;;;;;;11.60;7.07;;;8.30;99.90;;;;;;5090788;28;20048;-64
2023/04/07 02:56:43;;;;;;;13.77;6.45;;;8.50;99.90;;;;;;5090602;28;20056;-65
2023/04/07 02:59:10;;;;;;;14.43;7.22;;;8.40;99.90;;;;;;5090559;28;20074;-64
2023/04/07 03:01:37;;;;;;;13.73;7.68;;;8.50;99.90;;;;;;5090626;28;20052;-64
2023/04/07 03:04:04;;;;;;;10.05;6.28;;;8.40;99.90;;;;;;5090810;28;20112;-64
2023/04/07 03:06:30;;;;;;;11.55;6.65;;;8.40;99.90;;;;;;5090244;28;20044;-63
2023/04/07 03:08:56;;;;;;;13.57;7.05;;;8.40;99.90;;;;;;5094040;28;20086;-64
2023/04/07 03:11:22;;;;;;;12.95;7.15;;;8.50;99.90;;;;;;5076477;28;20108;-63
2023/04/07 03:13:49;;;;;;;12.05;6.35;;;8.40;99.90;;;;;;5076379;28;20044;-64
2023/04/07 03:16:17;;;;;;;13.20;7.00;;;8.40;99.90;;;;;;5075973;28;20083;-64
2023/04/07 03:18:44;;;;;;;16.58;7.43;;;8.40;99.90;;;;;;5075802;28;20467;-64
2023/04/07 03:21:11;;;;;;;16.55;7.47;;;8.60;99.90;;;;;;5093997;28;20367;-64
2023/04/07 03:23:38;;;;;;;13.43;7.05;;;8.50;99.90;;;;;;5076364;28;20074;-64
2023/04/07 03:26:04;;;;;;;11.65;7.55;;;8.50;99.90;;;;;;5075462;28;20044;-63
2023/04/07 03:28:31;;;;;;;16.42;8.13;;;8.50;99.90;;;;;;5075440;28;20052;-64
2023/04/07 03:30:58;;;;;;;15.60;8.57;;;8.40;99.90;;;;;;5075691;28;20051;-64
2023/04/07 03:33:24;;;;;;;16.48;7.93;;;8.50;99.90;;;;;;5093899;28;20086;-64
2023/04/07 03:35:50;;;;;;;24.23;8.73;;;8.40;99.90;;;;;;5075443;28;20136;-63
2023/04/07 03:38:17;;;;;;;21.55;8.45;;;8.50;99.90;;;;;;5075333;28;20203;-64
2023/04/07 03:40:43;;;;;;;18.80;8.82;;;8.40;99.90;;;;;;5075680;28;20486;-64
2023/04/07 03:43:13;;;;;;;19.02;8.10;;;8.50;99.90;;;;;;5075638;28;20138;-63
2023/04/07 03:45:41;;;;;;;19.55;9.10;;;8.40;99.90;;;;;;5075395;28;20525;-63
2023/04/07 03:48:10;;;;;;;20.85;9.02;;;8.30;99.90;;;;;;5074669;28;20044;-64
2023/04/07 03:50:38;;;;;;;23.40;8.55;;;8.40;99.90;;;;;;5075874;28;20047;-63
2023/04/07 03:53:05;;;;;;;18.75;8.25;;;8.40;99.90;;;;;;5075787;28;20083;-63
2023/04/07 03:55:33;;;;;;;21.83;8.50;;;8.40;99.90;;;;;;5074782;28;20059;-63
2023/04/07 03:58:00;;;;;;;21.73;7.93;;;8.30;99.90;;;;;;5058165;28;20155;-63
2023/04/07 04:00:30;;;;;;;15.70;7.95;;;8.30;99.90;;;;;;5075261;28;20048;-63
2023/04/07 04:03:03;;;;;;;18.27;7.82;;;8.40;99.90;;;;;;5092783;28;20388;-64
2023/04/07 04:05:31;;;;;;;17.42;6.82;;;8.20;99.90;;;;;;5092776;28;20475;-65
2023/04/07 04:08:01;;;;;;;17.00;6.55;;;8.30;99.90;;;;;;5092546;28;20040;-64
2023/04/07 04:10:27;;;;;;;18.20;6.70;;;8.40;99.90;;;;;;5093306;28;20091;-64
2023/04/07 04:12:53;;;;;;;16.77;7.25;;;8.40;99.90;;;;;;5092986;28;20417;-63
2023/04/07 04:15:20;;;;;;;17.23;6.90;;;8.30;99.90;;;;;;5092513;28;20353;-63
2023/04/07 04:17:56;;;;;;;13.70;6.15;;;8.40;99.90;;;;;;5093299;28;20087;-64
2023/04/07 04:20:23;;;;;;;16.55;7.45;;;8.30;99.90;;;;;;5074501;28;20052;-62
2023/04/07 04:22:49;;;;;;;13.45;7.03;;;8.40;99.90;;;;;;5074896;28;20380;-63
2023/04/07 04:25:16;;;;;;;17.90;8.07;;;8.40;99.90;;;;;;5074322;28;20532;-63
2023/04/07 04:27:42;;;;;;;18.58;7.50;;;8.30;99.90;;;;;;5092243;28;20091;-64
2023/04/07 04:30:08;;;;;;;15.38;8.20;;;8.40;99.90;;;;;;5092691;28;20295;-64
2023/04/07 04:32:35;;;;;;;20.25;8.07;;;8.40;99.90;;;;;;5092764;28;20048;-63
2023/04/07 04:35:03;;;;;;;15.32;7.53;;;8.40;99.90;;;;;;5092865;28;20142;-64
2023/04/07 04:37:29;;;;;;;17.23;8.15;;;8.40;99.90;;;;;;5074497;28;20068;-64
2023/04/07 04:39:55;;;;;;;13.93;7.95;;;8.40;99.90;;;;;;5093036;28;20460;-63
2023/04/07 04:42:25;;;;;;;17.55;8.45;;;8.30;99.90;;;;;;5074704;28;20048;-64
2023/04/07 04:44:52;;;;;;;14.88;8.73;;;8.40;99.90;;;;;;5092467;28;20071;-63
2023/04/07 04:47:18;;;;;;;15.57;8.63;;;8.40;99.90;;;;;;5092066;28;20044;-64
2023/04/07 04:49:44;;;;;;;15.13;7.57;;;8.50;99.90;;;;;;5091755;28;20048;-64
2023/04/07 04:52:11;;;;;;;18.83;9.05;;;8.40;99.90;;;;;;5074388;28;20091;-63
2023/04/07 04:54:39;;;;;;;17.50;8.18;;;8.50;99.90;;;;;;5074176;28;20368;-63
2023/04/07 04:57:05;;;;;;;18.63;8.07;;;8.50;99.90;;;;;;5073870;28;20083;-64
2023/04/07 04:59:32;;;;;;;15.13;8.02;;;8.40;99.90;;;;;;5073781;28;20059;-64
2023/04/07 05:01:58;;;;;;;15.18;7.68;;;8.40;99.90;;;;;;5057077;28;20369;-64
2023/04/07 05:04:25;;;;;;;24.05;9.52;;;8.50;99.90;;;;;;5073466;28;20410;-64
2023/04/07 05:06:57;;;;;;;17.38;8.05;;;8.40;99.90;;;;;;5056903;28;20086;-64
2023/04/07 05:09:27;;;;;;;20.50;7.68;;;8.60;99.90;;;;;;5072979;28;20375;-63
2023/04/07 05:11:53;;;;;;;19.08;7.53;;;8.60;99.90;;;;;;5073352;28;20051;-64
2023/04/07 05:14:20;;;;;;;21.58;8.63;;;8.40;99.90;;;;;;5073585;28;20082;-63
2023/04/07 05:16:47;;;;;;;17.67;7.93;;;8.50;99.90;;;;;;5074239;28;20056;-63
2023/04/07 05:19:13;;;;;;;14.23;8.05;;;8.50;99.90;;;;;;5074536;28;20083;-64
2023/04/07 05:21:40;;;;;;;20.73;8.70;;;8.50;99.90;;;;;;5075140;28;20375;-63
2023/04/07 05:24:13;;;;;;;21.38;8.35;;;8.60;99.90;;;;;;5057735;28;20059;-64
2023/04/07 05:26:40;;;;;;;17.30;7.40;;;8.50;99.90;;;;;;5073452;28;20393;-63
2023/04/07 05:29:06;;;;;;;15.63;7.75;;;8.50;99.90;;;;;;5073076;28;20087;-63
2023/04/07 05:31:34;;;;;;;17.92;8.50;;;8.60;99.90;;;;;;5072693;28;20461;-63
2023/04/07 05:34:01;;;;;;;14.98;7.00;;;8.70;99.90;;;;;;5057196;28;20076;-64
2023/04/07 05:36:27;;;;;;;20.42;7.57;;;8.50;99.90;;;;;;5073324;28;20106;-64
2023/04/07 05:38:53;;;;;;;15.82;6.70;;;8.70;99.90;;;;;;5083273;28;20048;-64
2023/04/07 05:41:20;;;;;;;14.93;7.75;;;8.70;99.90;;;;;;5074333;28;20472;-64
2023/04/07 05:43:47;;;;;;;14.88;7.03;;;8.70;99.90;;;;;;5091251;28;20157;-64
2023/04/07 05:46:15;;;;;;;14.55;7.28;;;8.70;99.90;;;;;;5072691;28;20064;-64
2023/04/07 05:48:41;;;;;;;13.95;7.68;;;8.60;99.90;;;;;;5055700;28;20124;-65
2023/04/07 05:51:07;;;;;;;12.52;7.22;;;8.80;99.90;;;;;;5091488;28;20109;-64
2023/04/07 05:53:34;;;;;;;18.13;7.88;;;8.80;99.90;;;;;;5072943;28;20055;-64
2023/04/07 05:56:03;;;;;;;13.38;7.35;;;8.60;99.90;;;;;;5091913;28;20075;-64
2023/04/07 05:58:29;;;;;;;15.18;7.85;;;8.70;99.90;;;;;;5090786;28;20043;-65
2023/04/07 06:00:56;;;;;;;17.67;7.25;;;8.70;99.90;;;;;;5088601;28;20094;-65
2023/04/07 06:03:22;;;;;;;13.88;7.10;;;8.60;99.90;;;;;;5091002;28;20264;-65
2023/04/07 06:05:48;;;;;;;16.48;7.55;;;8.60;99.90;;;;;;5073088;28;20075;-63
2023/04/07 06:08:15;;;;;;;12.82;7.00;;;8.80;99.90;;;;;;5091415;28;20036;-64
2023/04/07 06:10:43;;;;;;;13.75;6.78;;;8.70;99.90;;;;;;5091982;28;20082;-63
2023/04/07 06:13:09;;;;;;;11.90;6.30;;;8.70;99.90;;;;;;5073790;28;20464;-64
2023/04/07 06:15:35;;;;;;;8.65;5.82;;;8.70;99.90;;;;;;5091355;28;20076;-63
2023/04/07 06:18:05;;;;;;;10.35;5.75;;;8.70;99.90;;;;;;5091304;28;20075;-63
2023/04/07 06:20:31;;;;;;;11.15;6.50;;;8.60;99.90;;;;;;5091776;28;20106;-64
2023/04/07 06:22:58;;;;;;;11.02;6.90;;;8.70;99.90;;;;;;5073920;28;20503;-63
2023/04/07 06:25:24;;;;;;;11.40;6.13;;;8.60;99.90;;;;;;5091275;28;20533;-63
2023/04/07 06:27:52;;;;;;;9.10;6.20;;;8.80;99.90;;;;;;5090829;28;20088;-64
2023/04/07 06:30:24;;;;;;;11.40;6.68;;;8.80;99.90;;;;;;5091648;28;20502;-63
2023/04/07 06:32:51;;;;;;;13.82;7.25;;;8.80;99.90;;;;;;5091381;28;20101;-65
2023/04/07 06:35:18;;;;;;;15.90;7.22;;;8.90;99.90;;;;;;5091174;28;20066;-63
2023/04/07 06:37:44;;;;;;;15.73;6.82;;;8.90;99.90;;;;;;5074019;28;20109;-63
2023/04/07 06:40:11;;;;;;;13.95;6.43;;;8.80;99.90;;;;;;5057319;28;20055;-63
2023/04/07 06:42:37;;;;;;;12.23;6.82;;;9.00;99.90;;;;;;5093760;28;20052;-62
2023/04/07 06:45:04;;;;;;;15.60;10.27;;;8.90;99.90;;;;;;5077233;28;20437;-63
2023/04/07 06:47:35;;;;;;;15.30;11.93;;;8.90;99.90;;;;;;5077454;28;20123;-64
2023/04/07 06:50:01;;;;;;;14.30;10.90;;;8.90;99.90;;;;;;5075503;28;20447;-64
2023/04/07 06:52:27;;;;;;;15.85;12.50;;;8.70;99.90;;;;;;5074754;28;20131;-64
2023/04/07 06:54:53;;;;;;;15.35;11.93;;;8.70;99.90;;;;;;5074552;28;20040;-64
2023/04/07 06:57:20;;;;;;;14.75;11.27;;;8.80;99.90;;;;;;5074864;28;20090;-64
2023/04/07 06:59:48;;;;;;;13.98;11.77;;;8.70;99.90;;;;;;5094395;28;20070;-63
2023/04/07 07:02:14;;;;;;;14.55;11.40;;;8.70;99.90;;;;;;5095056;28;20063;-65
2023/04/07 07:04:40;;;;;;;14.75;11.45;;;8.50;99.90;;;;;;5094451;28;20109;-64
2023/04/07 07:07:06;;;;;;;12.55;10.23;;;8.60;99.90;;;;;;5095146;28;20052;-63
2023/04/07 07:09:33;;;;;;;14.90;11.80;;;8.60;99.90;;;;;;5094921;28;20066;-63
2023/04/07 07:12:06;;;;;;;13.50;11.07;;;8.60;99.90;;;;;;5094818;28;20062;-63
2023/04/07 07:14:33;;;;;;;12.95;10.77;;;8.50;99.90;;;;;;5076406;28;20062;-63
2023/04/07 07:17:03;;;;;;;13.27;11.02;;;8.50;99.90;;;;;;5076715;28;20375;-62
2023/04/07 07:19:29;;;;;;;13.20;10.25;;;8.50;99.90;;;;;;5093860;28;20456;-63
2023/04/07 07:21:55;;;;;;;13.90;10.88;;;8.50;99.90;;;;;;5094812;28;20086;-62
2023/04/07 07:24:22;;;;;;;13.32;10.18;;;8.50;99.90;;;;;;5094204;28;20043;-65
2023/04/07 07:26:48;;;;;;;13.02;9.70;;;8.50;99.90;;;;;;5094244;28;20094;-63
2023/04/07 07:29:21;;;;;;;12.93;11.05;;;8.50;99.90;;;;;;5075752;28;20048;-63
2023/04/07 07:31:47;;;;;;;12.48;10.80;;;8.40;99.90;;;;;;5076232;28;20093;-64
2023/04/07 07:34:17;;;;;;;13.93;10.75;;;8.60;99.90;;;;;;5094131;28;20040;-63
2023/04/07 07:36:46;;;;;;;12.10;10.35;;;8.60;99.90;;;;;;5094276;28;20059;-64
2023/04/07 07:39:13;;;;;;;12.35;9.82;;;8.50;99.90;;;;;;5094047;28;20360;-64
2023/04/07 07:41:40;;;;;;;12.30;9.52;;;8.60;99.90;;;;;;5094618;28;20062;-63
2023/04/07 07:44:06;;;;;;;11.05;9.65;;;8.60;99.90;;;;;;5076607;28;20091;-64
2023/04/07 07:46:33;;;;;;;12.07;9.63;;;8.60;99.90;;;;;;5094109;28;20376;-64
2023/04/07 07:49:04;;;;;;;11.20;10.00;;;8.40;99.90;;;;;;5093672;28;20044;-63
2023/04/07 07:51:31;;;;;;;11.88;9.75;;;8.60;99.90;;;;;;5094053;28;20050;-63
2023/04/07 07:53:57;;;;;;;12.02;10.00;;;8.50;99.90;;;;;;5092803;28;20094;-62
2023/04/07 07:56:23;;;;;;;11.05;9.65;;;8.40;99.90;;;;;;5076337;28;20128;-63
2023/04/07 07:58:50;;;;;;;12.88;10.45;;;8.60;99.90;;;;;;5093779;28;20486;-62
2023/04/07 08:01:17;;;;;;;12.55;10.25;;;8.60;99.90;;;;;;5093532;28;20083;-62
2023/04/07 08:03:44;;;;;;;11.60;9.25;;;8.60;99.90;;;;;;5093523;28;20040;-62
2023/04/07 08:06:10;;;;;;;11.63;10.43;;;8.50;99.90;;;;;;5093853;28;20071;-63
2023/04/07 08:08:43;;;;;;;12.38;10.70;;;8.60;99.90;;;;;;5093389;28;20075;-63
2023/04/07 08:11:16;;;;;;;12.57;10.93;;;8.60;99.90;;;;;;5093809;28;20044;-62
2023/04/07 08:13:45;;;;;;;13.95;10.40;;;8.50;99.90;;;;;;5093457;28;20051;-64
2023/04/07 08:16:11;;;;;;;11.30;10.18;;;8.50;99.90;;;;;;5075575;28;20066;-64
2023/04/07 08:18:37;;;;;;;12.68;11.38;;;8.60;99.90;;;;;;5075444;28;20512;-63
2023/04/07 08:21:04;;;;;;;13.18;10.73;;;8.60;99.90;;;;;;5093471;28;20063;-63
2023/04/07 08:23:31;;;;;;;12.20;10.95;;;8.60;99.90;;;;;;5075131;28;20051;-63
2023/04/07 08:26:00;;;;;;;11.90;9.48;;;8.60;99.90;;;;;;5092953;28;20410;-62
2023/04/07 08:28:27;;;;;;;10.93;9.48;;;8.60;99.90;;;;;;5092241;28;20098;-63
2023/04/07 08:30:53;;;;;;;11.63;9.77;;;8.60;99.90;;;;;;5092745;28;20451;-63
2023/04/07 08:33:19;;;;;;;12.13;9.68;;;8.70;99.90;;;;;;5092728;28;20043;-64
2023/04/07 08:35:46;;;;;;;11.25;9.05;;;8.80;99.90;;;;;;5092949;28;20048;-64
2023/04/07 08:38:13;;;;;;;10.50;9.48;;;9.00;99.90;;;;;;5092965;28;20040;-63
2023/04/07 08:40:41;;;;;;;12.23;9.55;;;9.00;99.90;;;;;;5093205;28;20054;-63
2023/04/07 08:43:09;;;;;;;11.52;9.75;;;9.10;99.90;;;;;;5092679;28;20087;-64
2023/04/07 08:45:39;;;;;;;10.10;9.10;;;9.30;99.90;;;;;;5092887;28;20431;-63
2023/04/07 08:48:17;;;;;;;10.30;8.65;;;9.20;99.90;;;;;;5074629;28;20076;-64
2023/04/07 08:50:45;;;;;;;10.27;8.48;;;9.40;99.90;;;;;;5074746;28;20375;-63
2023/04/07 08:53:16;;;;;;;9.75;8.25;;;9.40;99.90;;;;;;5092184;28;20492;-63
2023/04/07 08:55:43;;;;;;;;;;;9.40;99.90;;;;;;5093443;28;20146;-63
2023/04/07 08:58:12;;;;;;;8.90;7.43;;;9.40;99.90;;;;;;5074555;28;20264;-63
2023/04/07 09:00:47;;;;;;;10.15;8.88;;;9.50;99.90;;;;;;5074607;28;20155;-63
2023/04/07 09:03:15;;;;;;;9.63;8.55;;;9.60;99.90;;;;;;5108298;28;20113;-63
2023/04/07 09:05:45;;;;;;;7.57;6.78;;;9.60;99.90;;;;;;5074579;28;20052;-64
2023/04/07 09:08:11;;;;;;;8.38;6.82;;;9.60;99.90;;;;;;5092228;28;20050;-64
2023/04/07 09:10:37;;;;;;;7.55;6.50;;;9.60;99.90;;;;;;5092327;28;20338;-63
2023/04/07 09:13:08;;;;;;;6.93;5.85;;;9.50;99.90;;;;;;5092331;28;20048;-64
2023/04/07 09:15:34;;;;;;;7.40;6.18;;;9.60;99.90;;;;;;5092726;28;20118;-64
2023/04/07 09:18:01;;;;;;;7.05;5.90;;;9.40;99.90;;;;;;5074299;28;20187;-62
2023/04/07 09:20:28;;;;;;;9.02;5.80;;;9.40;99.90;;;;;;5092638;28;20072;-65
2023/04/07 09:22:55;;;;;;;7.25;5.15;;;9.60;99.90;;;;;;5074703;28;20052;-64
2023/04/07 09:25:28;;;;;;;5.55;4.97;;;9.50;99.90;;;;;;5091544;28;20348;-64
2023/04/07 09:27:58;;;;;;;5.88;4.72;;;9.50;99.90;;;;;;5073594;28;20046;-64
2023/04/07 09:30:25;;;;;;;5.47;4.13;;;9.40;99.90;;;;;;5074081;28;20062;-65
2023/04/07 09:32:52;;;;;;;5.30;4.28;;;9.40;99.90;;;;;;5092126;28;20043;-63
2023/04/07 09:35:19;;;;;;;6.40;5.65;;;9.40;99.90;;;;;;5073427;28;20047;-64
2023/04/07 09:38:05;;;;;;;7.85;6.90;;;9.40;99.90;;;;;;5091659;28;20076;-63
2023/04/07 09:40:31;;;;;;;8.00;7.20;;;9.40;99.90;;;;;;5074125;28;20438;-63
2023/04/07 09:42:58;;;;;;;9.45;8.38;;;9.30;99.90;;;;;;5092232;28;20063;-63
2023/04/07 09:45:29;;;;;;;10.40;7.57;;;9.20;99.90;;;;;;5092128;28;20110;-64
2023/04/07 09:47:57;;;;;;;9.45;8.45;;;9.20;99.90;;;;;;5091722;28;20387;-64
2023/04/07 09:50:38;;;;;;;9.07;7.68;;;9.20;99.90;;;;;;5092216;28;20070;-65
2023/04/07 09:53:05;;;;;;;9.63;7.63;;;9.30;99.90;;;;;;5092155;28;20044;-64
2023/04/07 09:55:32;;;;;;;8.82;7.82;;;9.40;99.90;;;;;;5092086;28;20075;-66
2023/04/07 09:58:01;;;;;;;10.20;9.00;;;9.40;99.90;;;;;;5073841;28;20087;-64
2023/04/07 10:00:27;;;;;;;10.73;9.00;;;9.50;99.90;;;;;;5091594;28;20494;-64
2023/04/07 10:02:55;;;;;;;11.27;9.80;;;9.60;99.90;;;;;;5091709;28;20078;-64
2023/04/07 10:05:22;;;;;;;10.38;9.27;;;9.60;99.90;;;;;;5091659;28;20048;-64
2023/04/07 10:07:48;;;;;;;10.30;9.20;;;9.60;99.90;;;;;;5073780;28;20048;-64
2023/04/07 10:10:22;;;;;;;12.27;10.02;;;9.70;99.90;;;;;;5091964;28;20040;-64
2023/04/07 10:12:52;;;;;;;10.90;9.70;;;9.60;99.90;;;;;;5091585;28;20040;-65
2023/04/07 10:15:18;;;;;;;11.00;9.80;;;9.70;99.90;;;;;;5091358;28;20051;-64
2023/04/07 10:17:50;;;;;;;14.80;11.75;;;9.80;99.90;;;;;;5093503;28;20090;-63
2023/04/07 10:20:19;;;;;;;11.85;10.05;;;9.90;99.90;;;;;;5057778;28;20507;-63
2023/04/07 10:22:52;;;;;;;13.63;11.18;;;9.80;99.90;;;;;;5057581;28;20052;-64
2023/04/07 10:25:21;;;;;;;13.43;12.02;;;9.90;99.90;;;;;;5041206;28;20053;-64
2023/04/07 10:27:53;;;;;;;13.25;10.77;;;9.80;99.90;;;;;;5076058;28;20094;-65
2023/04/07 10:30:25;;;;;;;12.77;11.00;;;10.00;99.90;;;;;;5095909;28;20414;-64
2023/04/07 10:32:54;;;;;;;12.40;11.00;;;10.00;99.90;;;;;;5095852;28;20075;-64
2023/04/07 10:35:22;;;;;;;11.68;10.10;;;10.20;99.90;;;;;;5095967;28;20476;-64
2023/04/07 10:38:06;;;;;;;12.10;10.60;;;10.20;99.90;;;;;;5095080;28;20464;-65
2023/04/07 10:40:34;;;;;;;11.35;10.07;;;10.20;99.90;;;;;;5095812;28;20048;-64
2023/04/07 10:43:10;;;;;;;9.95;8.95;;;10.30;99.90;;;;;;5095091;28;20123;-64
2023/04/07 10:45:48;;;;;;;9.93;8.82;;;10.30;99.90;;;;;;5095700;28;20076;-64
2023/04/07 10:48:16;;;;;;;11.52;9.65;;;10.30;99.90;;;;;;5077263;28;20075;-64
2023/04/07 10:51:04;;;;;;;10.80;8.95;;;10.20;99.90;;;;;;5077203;28;20097;-65
2023/04/07 10:53:31;;;;;;;8.82;7.57;;;10.20;99.90;;;;;;5073080;28;20048;-64
2023/04/07 10:55:58;;;;;;;8.95;8.05;;;10.30;99.90;;;;;;5077003;28;20044;-64
2023/04/07 10:58:32;;;;;;;9.50;7.95;;;10.30;99.90;;;;;;5071439;28;20052;-64
2023/04/07 11:01:08;;;;;;;8.40;7.50;;;10.40;99.90;;;;;;5095029;28;20080;-64
2023/04/07 11:03:36;;;;;;;10.40;8.20;;;10.50;99.90;;;;;;5095055;28;20466;-64
2023/04/07 11:06:10;;;;;;;8.90;7.57;;;10.60;99.90;;;;;;5095694;28;20108;-64
2023/04/07 11:08:43;;;;;;;8.98;8.07;;;10.70;99.90;;;;;;5094977;28;20104;-65
2023/04/07 11:11:11;;;;;;;8.13;6.88;;;10.80;99.90;;;;;;5077117;28;20102;-64
2023/04/07 11:13:41;;;;;;;8.23;7.38;;;10.90;99.90;;;;;;5076919;28;20058;-64
2023/04/07 11:16:33;;;;;;;8.13;7.20;;;10.90;99.90;;;;;;5094557;28;20083;-65
2023/04/07 11:18:59;;;;;;;7.75;6.90;;;10.90;99.90;;;;;;5076597;28;20074;-63
2023/04/07 11:21:26;;;;;;;7.15;6.43;;;11.00;99.90;;;;;;5094541;28;20048;-63
2023/04/07 11:23:52;;;;;;;8.82;7.43;;;11.00;99.90;;;;;;5094788;28;20056;-63
2023/04/07 11:26:19;;;;;;;8.60;7.40;;;11.10;99.90;;;;;;5094278;28;20467;-63
2023/04/07 11:28:51;;;;;;;7.28;6.57;;;11.10;99.90;;;;;;5088218;28;20059;-64
2023/04/07 11:31:32;;;;;;;8.30;7.38;;;11.20;99.90;;;;;;5094562;28;20044;-63
2023/04/07 11:34:05;;;;;;;7.82;6.65;;;11.10;99.90;;;;;;5094050;28;20090;-63
2023/04/07 11:36:39;;;;;;;9.02;8.13;;;11.10;99.90;;;;;;5094243;28;20066;-63
2023/04/07 11:39:21;;;;;;;9.52;8.52;;;11.00;99.90;;;;;;5094033;28;20054;-64
2023/04/07 11:41:49;;;;;;;9.13;8.23;;;10.90;99.90;;;;;;5094101;28;20232;-64
2023/04/07 11:44:16;;;;;;;7.65;6.85;;;10.90;99.90;;;;;;5093984;28;20071;-64
2023/04/07 11:46:56;;;;;;;7.93;7.13;;;10.80;99.90;;;;;;5094470;28;20101;-64
2023/04/07 11:49:28;;;;;;;8.82;7.28;;;10.80;99.90;;;;;;5088076;28;20496;-64
2023/04/07 11:52:07;;;;;;;9.02;8.13;;;10.70;99.90;;;;;;5093684;28;20048;-64
2023/04/07 11:54:43;;;;;;;8.82;7.97;;;10.70;99.90;;;;;;5093791;28;20043;-64
2023/04/07 11:57:13;;;;;;;7.85;6.97;;;10.70;99.90;;;;;;5094460;28;20044;-65
2023/04/07 11:59:40;;;;;;;7.88;6.63;;;10.70;99.90;;;;;;5093482;28;20433;-63
2023/04/07 12:02:07;;;;;;;7.43;6.72;;;10.70;99.90;;;;;;5093555;28;20070;-60
2023/04/07 12:04:35;;;;;;;7.05;6.35;;;10.70;99.90;;;;;;5093823;28;20456;-64
2023/04/07 12:07:09;;;;;;;8.27;7.47;;;10.70;99.90;;;;;;5076176;28;20440;-63
2023/04/07 12:09:37;;;;;;;7.57;6.78;;;10.70;99.90;;;;;;5068566;28;20432;-65
2023/04/07 12:12:05;;;;;;;7.30;6.13;;;10.70;99.90;;;;;;5093998;28;20079;-64
2023/04/07 12:14:34;;;;;;;7.40;6.65;;;10.80;99.90;;;;;;5075723;28;20044;-64
2023/04/07 12:17:02;;;;;;;7.18;6.38;;;10.90;99.90;;;;;;5090464;28;20064;-64
2023/04/07 12:19:31;;;;;;;6.60;5.90;;;10.80;99.90;;;;;;5072144;28;20556;-63
2023/04/07 12:22:01;;;;;;;8.65;6.38;;;10.90;99.90;;;;;;5093020;28;20048;-64
2023/04/07 12:24:27;;;;;;;7.45;6.57;;;10.90;99.90;;;;;;5073231;28;20085;-64
2023/04/07 12:26:54;;;;;;;7.70;6.88;;;11.00;99.90;;;;;;5074895;28;21067;-63
2023/04/07 12:29:20;;;;;;;5.88;5.25;;;11.00;99.90;;;;;;5091975;28;20052;-64
2023/04/07 12:31:55;;;;;;;6.53;5.93;;;11.20;99.90;;;;;;5074752;28;20052;-64
2023/04/07 12:34:22;;;;;;;6.03;5.28;;;11.30;99.90;;;;;;5071826;28;20298;-64
2023/04/07 12:36:48;;;;;;;6.28;5.68;;;11.40;99.90;;;;;;5074517;28;20044;-65
2023/04/07 12:39:15;;;;;;;6.03;5.10;;;11.50;99.90;;;;;;5072169;28;20083;-64
2023/04/07 12:41:42;;;;;;;5.60;5.10;;;11.60;99.90;;;;;;5092425;28;20392;-63
2023/04/07 12:44:09;;;;;;;5.82;5.22;;;11.70;99.90;;;;;;5092468;28;20048;-64
2023/04/07 12:46:42;;;;;;;5.90;5.30;;;11.70;99.90;;;;;;5074424;28;20113;-64
2023/04/07 12:49:10;;;;;;;5.72;5.07;;;11.70;99.90;;;;;;5090107;28;20044;-64
2023/04/07 12:51:38;;;;;;;6.10;5.40;;;11.90;99.90;;;;;;5092593;28;20078;-63
2023/04/07 12:54:04;;;;;;;5.60;4.97;;;12.00;99.90;;;;;;5074320;28;20047;-64